createdAt,value
2019-05-12T00:01:53.423Z,9.00
2019-05-12T00:04:23.994Z,9.00
2019-05-12T00:06:54.583Z,9.00
2019-05-12T00:09:25.045Z,8.90
2019-05-12T00:11:55.467Z,8.90
2019-05-12T00:14:28.122Z,8.90
2019-05-12T00:16:58.183Z,9.00
2019-05-12T00:19:28.746Z,9.00
2019-05-12T00:21:59.222Z,9.00
2019-05-12T00:24:29.651Z,9.00
2019-05-12T00:27:02.739Z,9.00
2019-05-12T00:29:33.272Z,9.00
2019-05-12T00:32:03.695Z,9.00
2019-05-12T00:34:34.121Z,9.00
2019-05-12T00:37:04.754Z,9.00
2019-05-12T00:39:35.184Z,9.00
2019-05-12T00:42:07.751Z,9.00
2019-05-12T00:44:39.017Z,8.90
2019-05-12T00:47:09.740Z,8.90
2019-05-12T00:52:09.775Z,8.90
2019-05-12T00:54:40.406Z,8.80
2019-05-12T00:57:10.835Z,8.80
2019-05-12T00:59:41.264Z,8.80
2019-05-12T01:04:41.295Z,8.80
2019-05-12T01:07:11.827Z,8.90
2019-05-12T01:09:43.275Z,8.90
2019-05-12T01:12:13.707Z,8.90
2019-05-12T01:14:44.128Z,8.90
2019-05-12T01:17:14.555Z,8.90
2019-05-12T01:19:45.189Z,8.90
2019-05-12T01:22:15.615Z,8.90
2019-05-12T01:24:48.202Z,8.80
2019-05-12T01:27:18.201Z,8.90
2019-05-12T01:29:48.636Z,8.80
2019-05-12T01:32:30.421Z,8.80
2019-05-12T01:37:30.568Z,8.70
2019-05-12T01:40:00.997Z,8.50
2019-05-12T01:42:31.423Z,8.50
2019-05-12T01:45:01.869Z,8.40
2019-05-12T01:47:32.281Z,8.40
2019-05-12T01:52:32.414Z,8.30
2019-05-12T01:55:02.849Z,8.20
2019-05-12T01:57:33.470Z,8.10
2019-05-12T02:00:04.106Z,8.10
2019-05-12T02:02:34.640Z,8.00
2019-05-12T02:05:09.715Z,8.00
2019-05-12T02:07:44.912Z,7.90
2019-05-12T02:10:17.798Z,7.90
2019-05-12T02:12:49.043Z,7.80
2019-05-12T02:15:20.274Z,7.80
2019-05-12T02:17:50.819Z,7.70
2019-05-12T02:20:22.365Z,7.70
2019-05-12T02:22:52.864Z,7.60
2019-05-12T02:25:23.329Z,7.60
2019-05-12T02:27:53.749Z,7.50
2019-05-12T02:30:25.309Z,7.50
2019-05-12T02:32:59.009Z,7.50
2019-05-12T02:35:28.112Z,7.50
2019-05-12T02:37:58.737Z,7.50
2019-05-12T02:40:29.181Z,7.50
2019-05-12T02:42:59.804Z,7.50
2019-05-12T02:45:30.225Z,7.40
2019-05-12T02:48:00.649Z,7.40
2019-05-12T02:50:37.195Z,7.40
2019-05-12T02:53:08.209Z,7.30
2019-05-12T02:55:39.542Z,7.40
2019-05-12T02:58:15.159Z,7.40
2019-05-12T03:00:45.944Z,7.40
2019-05-12T03:03:19.414Z,7.40
2019-05-12T03:05:54.721Z,7.40
2019-05-12T03:08:25.916Z,7.40
2019-05-12T03:10:57.507Z,7.40
2019-05-12T03:13:27.959Z,7.40
2019-05-12T03:15:58.385Z,7.30
2019-05-12T03:18:28.851Z,7.30
2019-05-12T03:21:00.376Z,7.30
2019-05-12T03:23:30.799Z,7.30
2019-05-12T03:26:01.274Z,7.40
2019-05-12T03:28:35.263Z,7.40
2019-05-12T03:31:07.676Z,7.30
2019-05-12T03:33:43.488Z,7.20
2019-05-12T03:36:09.792Z,7.10
2019-05-12T03:38:40.113Z,7.10
2019-05-12T03:41:14.405Z,7.00
2019-05-12T03:43:44.873Z,7.00
2019-05-12T03:46:15.597Z,7.00
2019-05-12T03:48:46.123Z,7.00
2019-05-12T03:51:16.619Z,7.00
2019-05-12T03:53:47.080Z,7.00
2019-05-12T03:56:17.504Z,7.00
2019-05-12T03:58:47.983Z,6.90
2019-05-12T04:01:18.463Z,7.00
2019-05-12T04:03:48.997Z,7.00
2019-05-12T04:06:19.521Z,7.00
2019-05-12T04:08:50.049Z,7.10
2019-05-12T04:11:24.870Z,7.10
2019-05-12T04:13:55.032Z,7.00
2019-05-12T04:16:25.738Z,7.00
2019-05-12T04:18:56.166Z,7.10
2019-05-12T04:21:26.765Z,7.20
2019-05-12T04:23:57.220Z,7.20
2019-05-12T04:26:27.650Z,7.30
2019-05-12T04:28:58.133Z,7.30
2019-05-12T04:31:28.602Z,7.30
2019-05-12T04:33:59.031Z,7.40
2019-05-12T04:36:29.459Z,7.40
2019-05-12T04:38:59.884Z,7.30
2019-05-12T04:41:30.313Z,7.20
2019-05-12T04:44:00.726Z,7.10
2019-05-12T04:46:34.390Z,7.00
2019-05-12T04:49:05.292Z,7.00
2019-05-12T04:51:36.435Z,6.90
2019-05-12T04:54:06.954Z,6.80
2019-05-12T04:56:37.585Z,6.70
2019-05-12T04:59:08.011Z,6.70
2019-05-12T05:01:38.487Z,6.80
2019-05-12T05:04:09.046Z,6.90
2019-05-12T05:06:39.588Z,7.00
2019-05-12T05:09:10.540Z,7.10
2019-05-12T05:11:41.071Z,7.10
2019-05-12T05:14:13.529Z,7.10
2019-05-12T05:16:45.093Z,7.10
2019-05-12T05:19:15.625Z,7.20
2019-05-12T05:21:46.053Z,7.20
2019-05-12T05:24:16.478Z,7.30
2019-05-12T05:26:46.910Z,7.20
2019-05-12T05:29:17.331Z,7.30
2019-05-12T05:31:47.805Z,7.30
2019-05-12T05:34:18.291Z,7.40
2019-05-12T05:36:50.967Z,7.50
2019-05-12T05:39:20.780Z,7.60
2019-05-12T05:41:51.237Z,7.60
2019-05-12T05:44:23.852Z,7.70
2019-05-12T05:46:56.128Z,7.80
2019-05-12T05:49:26.085Z,7.90
2019-05-12T05:51:57.581Z,8.00
2019-05-12T05:54:31.585Z,8.10
2019-05-12T05:57:02.958Z,8.20
2019-05-12T05:59:36.481Z,8.30
2019-05-12T06:02:05.102Z,8.40
2019-05-12T06:04:39.076Z,8.50
2019-05-12T06:07:08.077Z,8.60
2019-05-12T06:09:38.498Z,8.80
2019-05-12T06:12:10.119Z,8.90
2019-05-12T06:14:41.046Z,9.00
2019-05-12T06:17:11.624Z,9.10
2019-05-12T06:19:43.783Z,9.30
2019-05-12T06:22:18.230Z,9.40
2019-05-12T06:24:49.218Z,9.50
2019-05-12T06:27:20.932Z,9.60
2019-05-12T06:30:00.633Z,9.70
2019-05-12T06:32:25.124Z,9.80
2019-05-12T06:35:01.258Z,9.90
2019-05-12T06:37:27.913Z,10.00
2019-05-12T06:40:00.604Z,10.20
2019-05-12T06:42:31.252Z,10.40
2019-05-12T06:45:03.691Z,10.40
2019-05-12T06:47:34.453Z,10.50
2019-05-12T06:50:05.157Z,10.70
2019-05-12T06:52:38.539Z,10.80
2019-05-12T06:55:08.070Z,11.00
2019-05-12T06:57:39.976Z,11.20
2019-05-12T07:00:11.633Z,11.30
2019-05-12T07:02:50.018Z,11.50
2019-05-12T07:05:14.719Z,11.70
2019-05-12T07:07:46.197Z,11.90
2019-05-12T07:10:35.725Z,12.10
2019-05-12T07:12:59.008Z,12.20
2019-05-12T07:15:23.217Z,12.30
2019-05-12T07:17:57.981Z,12.40
2019-05-12T07:20:29.150Z,12.70
2019-05-12T07:23:00.614Z,13.20
2019-05-12T07:25:33.727Z,13.80
2019-05-12T07:28:07.528Z,14.60
2019-05-12T07:30:36.394Z,15.70
2019-05-12T07:35:39.650Z,16.80
2019-05-12T07:38:12.074Z,18.60
2019-05-12T07:40:45.740Z,19.50
2019-05-12T07:43:20.598Z,20.20
2019-05-12T07:45:56.644Z,20.90
2019-05-12T07:48:25.259Z,21.80
2019-05-12T07:51:00.426Z,23.00
2019-05-12T07:53:28.163Z,23.40
2019-05-12T07:55:58.766Z,23.90
2019-05-12T07:58:29.239Z,23.50
2019-05-12T08:01:07.203Z,24.00
2019-05-12T08:03:34.307Z,24.30
2019-05-12T08:06:04.621Z,24.10
2019-05-12T08:08:41.875Z,24.20
2019-05-12T08:11:10.116Z,23.80
2019-05-12T08:13:41.014Z,24.70
2019-05-12T08:16:14.147Z,26.30
2019-05-12T08:18:44.590Z,27.60
2019-05-12T08:21:15.252Z,28.50
2019-05-12T08:23:45.677Z,27.70
2019-05-12T08:26:18.636Z,28.00
2019-05-12T08:28:48.192Z,28.10
2019-05-12T08:31:23.494Z,27.80
2019-05-12T08:33:50.969Z,28.80
2019-05-12T08:36:23.453Z,29.30
2019-05-12T08:38:53.747Z,29.10
2019-05-12T08:41:24.411Z,29.50
2019-05-12T08:43:58.337Z,29.30
2019-05-12T08:46:28.168Z,28.00
2019-05-12T08:49:02.245Z,27.10
2019-05-12T08:51:33.745Z,27.20
2019-05-12T08:54:07.824Z,27.40
2019-05-12T08:56:35.973Z,27.00
2019-05-12T08:59:09.573Z,28.10
2019-05-12T09:01:40.719Z,30.10
2019-05-12T09:04:15.130Z,31.60
2019-05-12T09:06:44.122Z,32.50
2019-05-12T09:09:14.875Z,31.60
2019-05-12T09:11:45.293Z,30.40
2019-05-12T09:14:15.822Z,31.60
2019-05-12T09:16:46.252Z,31.50
2019-05-12T09:19:23.539Z,32.20
2019-05-12T09:21:48.743Z,32.70
2019-05-12T09:24:26.899Z,32.90
2019-05-12T09:26:51.234Z,33.20
2019-05-12T09:29:21.661Z,32.50
2019-05-12T09:31:53.195Z,32.00
2019-05-12T09:34:23.735Z,31.00
2019-05-12T09:36:59.488Z,31.00
2019-05-12T09:39:26.351Z,31.60
2019-05-12T09:41:56.829Z,32.50
2019-05-12T09:44:30.439Z,32.20
2019-05-12T09:46:59.846Z,31.10
2019-05-12T09:49:36.727Z,30.50
2019-05-12T09:52:03.651Z,30.70
2019-05-12T09:54:40.626Z,30.70
2019-05-12T09:57:06.970Z,30.90
2019-05-12T09:59:37.537Z,31.00
2019-05-12T10:02:10.417Z,31.70
2019-05-12T10:04:40.031Z,30.40
2019-05-12T10:07:10.561Z,29.30
2019-05-12T10:09:41.302Z,30.20
2019-05-12T10:12:13.545Z,30.50
2019-05-12T10:14:45.839Z,31.50
2019-05-12T10:17:20.364Z,32.00
2019-05-12T10:19:54.194Z,32.00
2019-05-12T10:22:23.538Z,32.40
2019-05-12T10:24:58.355Z,33.80
2019-05-12T10:27:31.787Z,35.20
2019-05-12T10:30:05.621Z,35.20
2019-05-12T10:32:31.623Z,33.80
2019-05-12T10:35:02.060Z,34.10
2019-05-12T10:37:32.477Z,33.60
2019-05-12T10:40:04.498Z,34.60
2019-05-12T10:42:39.849Z,35.10
2019-05-12T10:45:10.867Z,34.60
2019-05-12T10:47:39.918Z,35.40
2019-05-12T10:50:11.067Z,36.70
2019-05-12T10:52:43.870Z,35.80
2019-05-12T10:55:14.455Z,37.30
2019-05-12T10:57:47.237Z,36.00
2019-05-12T11:00:25.191Z,35.90
2019-05-12T11:02:53.381Z,37.00
2019-05-12T11:05:26.091Z,37.60
2019-05-12T11:08:00.357Z,37.00
2019-05-12T11:10:27.874Z,36.70
2019-05-12T11:12:59.114Z,37.50
2019-05-12T11:15:30.590Z,36.30
2019-05-12T11:18:20.481Z,36.50
2019-05-12T11:20:51.415Z,37.00
2019-05-12T11:23:24.235Z,37.50
2019-05-12T11:25:54.006Z,38.10
2019-05-12T11:28:24.593Z,37.20
2019-05-12T11:30:55.169Z,37.20
2019-05-12T11:33:25.801Z,36.30
2019-05-12T11:35:56.444Z,34.80
2019-05-12T11:38:27.067Z,33.40
2019-05-12T11:40:57.489Z,33.70
2019-05-12T11:43:29.752Z,35.00
2019-05-12T11:46:01.202Z,36.40
2019-05-12T11:48:33.732Z,37.90
2019-05-12T11:51:05.757Z,36.90
2019-05-12T11:53:36.291Z,37.40
2019-05-12T11:56:07.785Z,38.60
2019-05-12T11:58:41.307Z,39.60
2019-05-12T12:01:14.014Z,40.30
2019-05-12T12:03:44.563Z,40.50
2019-05-12T12:06:14.968Z,41.10
2019-05-12T12:08:45.398Z,40.00
2019-05-12T12:11:21.968Z,39.70
2019-05-12T12:13:49.733Z,39.50
2019-05-12T12:16:20.205Z,39.00
2019-05-12T12:18:59.567Z,39.70
2019-05-12T12:21:23.718Z,40.90
2019-05-12T12:23:54.315Z,41.30
2019-05-12T12:26:30.406Z,41.40
2019-05-12T12:28:58.529Z,42.30
2019-05-12T12:31:37.242Z,41.60
2019-05-12T12:34:03.586Z,41.70
2019-05-12T12:36:36.187Z,41.80
2019-05-12T12:39:07.828Z,41.20
2019-05-12T12:41:44.157Z,41.00
2019-05-12T12:44:10.318Z,40.60
2019-05-12T12:46:40.894Z,40.40
2019-05-12T12:49:13.912Z,40.40
2019-05-12T12:51:44.574Z,40.00
2019-05-12T12:54:14.995Z,39.10
2019-05-12T12:56:45.421Z,39.10
2019-05-12T12:59:15.941Z,39.60
2019-05-12T13:01:46.377Z,39.70
2019-05-12T13:04:16.805Z,39.50
2019-05-12T13:06:47.232Z,40.30
2019-05-12T13:09:24.342Z,39.00
2019-05-12T13:11:50.182Z,38.80
2019-05-12T13:14:20.665Z,37.80
2019-05-12T13:16:54.670Z,38.30
2019-05-12T13:19:23.802Z,37.60
2019-05-12T13:21:54.290Z,37.30
2019-05-12T13:24:24.727Z,37.30
2019-05-12T13:26:55.157Z,38.20
2019-05-12T13:29:34.511Z,39.40
2019-05-12T13:31:58.678Z,40.10
2019-05-12T13:34:33.916Z,39.10
2019-05-12T13:37:03.337Z,38.10
2019-05-12T13:39:33.663Z,37.40
2019-05-12T13:42:04.168Z,37.70
2019-05-12T13:44:38.771Z,38.30
2019-05-12T13:47:06.661Z,38.40
2019-05-12T13:49:42.681Z,36.60
2019-05-12T13:52:10.383Z,37.10
2019-05-12T13:54:43.541Z,37.10
2019-05-12T13:57:13.409Z,34.70
2019-05-12T13:59:43.915Z,34.00
2019-05-12T14:02:22.037Z,34.80
2019-05-12T14:04:46.805Z,33.20
2019-05-12T14:07:20.113Z,33.30
2019-05-12T14:09:49.415Z,33.20
2019-05-12T14:12:20.146Z,33.60
2019-05-12T14:14:50.578Z,35.10
2019-05-12T14:17:23.390Z,35.70
2019-05-12T14:19:53.349Z,36.30
2019-05-12T14:22:26.340Z,36.00
2019-05-12T14:24:55.967Z,35.90
2019-05-12T14:27:28.730Z,35.20
2019-05-12T14:30:00.286Z,34.20
2019-05-12T14:32:30.628Z,34.40
2019-05-12T14:35:01.057Z,34.00
2019-05-12T14:37:33.508Z,32.40
2019-05-12T14:40:06.518Z,32.20
2019-05-12T14:42:39.696Z,33.30
2019-05-12T14:45:09.280Z,33.50
2019-05-12T14:47:39.742Z,34.30
2019-05-12T14:50:10.169Z,34.60
2019-05-12T14:52:40.652Z,34.60
2019-05-12T14:55:13.636Z,34.20
2019-05-12T14:57:43.499Z,34.50
2019-05-12T15:00:19.999Z,34.50
2019-05-12T15:02:47.323Z,33.70
2019-05-12T15:05:17.751Z,33.20
2019-05-12T15:07:53.749Z,31.80
2019-05-12T15:10:19.900Z,31.00
2019-05-12T15:12:50.661Z,30.00
2019-05-12T15:15:21.198Z,30.60
2019-05-12T15:17:56.678Z,31.70
2019-05-12T15:20:24.717Z,32.60
2019-05-12T15:22:55.487Z,32.40
2019-05-12T15:25:29.479Z,31.60
2019-05-12T15:27:58.044Z,31.20
2019-05-12T15:30:28.458Z,31.70
2019-05-12T15:32:58.886Z,31.00
2019-05-12T15:35:29.324Z,30.40
2019-05-12T15:37:59.750Z,30.20
2019-05-12T15:40:30.178Z,29.60
2019-05-12T15:43:03.071Z,29.00
2019-05-12T15:45:34.261Z,27.40
2019-05-12T15:48:04.837Z,25.40
2019-05-12T15:50:35.270Z,23.70
2019-05-12T15:53:05.692Z,22.30
2019-05-12T15:55:36.174Z,21.60
2019-05-12T15:58:06.760Z,21.20
2019-05-12T16:00:38.506Z,20.90
2019-05-12T16:03:09.040Z,20.70
2019-05-12T16:05:39.463Z,20.50
2019-05-12T16:08:09.890Z,20.50
2019-05-12T16:10:40.325Z,20.30
2019-05-12T16:13:15.505Z,19.90
2019-05-12T16:15:43.896Z,19.60
2019-05-12T16:18:14.557Z,19.50
2019-05-12T16:20:44.995Z,19.30
2019-05-12T16:23:23.811Z,19.10
2019-05-12T16:25:47.547Z,18.90
2019-05-12T16:28:23.403Z,18.70
2019-05-12T16:30:51.107Z,18.40
2019-05-12T16:33:22.779Z,18.30
2019-05-12T16:35:54.603Z,18.30
2019-05-12T16:38:25.153Z,18.10
2019-05-12T16:40:56.711Z,18.10
2019-05-12T16:43:29.464Z,18.10
2019-05-12T16:45:59.198Z,18.00
2019-05-12T16:48:33.264Z,17.80
2019-05-12T16:51:03.316Z,17.60
2019-05-12T16:53:34.165Z,17.40
2019-05-12T16:56:04.764Z,17.40
2019-05-12T16:58:35.535Z,17.30
2019-05-12T17:01:06.170Z,17.10
2019-05-12T17:03:36.591Z,17.00
2019-05-12T17:06:07.020Z,16.80
2019-05-12T17:08:37.443Z,16.70
2019-05-12T17:11:23.079Z,16.50
2019-05-12T17:13:40.327Z,16.40
2019-05-12T17:16:10.773Z,16.30
2019-05-12T17:18:41.202Z,16.20
2019-05-12T17:21:13.991Z,16.20
2019-05-12T17:23:43.703Z,16.00
2019-05-12T17:26:14.137Z,15.90
2019-05-12T17:28:44.599Z,16.00
2019-05-12T17:31:15.330Z,15.90
2019-05-12T17:33:45.810Z,15.90
2019-05-12T17:36:18.014Z,15.80
2019-05-12T17:38:51.137Z,15.70
2019-05-12T17:41:20.367Z,15.60
2019-05-12T17:46:23.327Z,15.50
2019-05-12T17:48:53.801Z,15.30
2019-05-12T17:51:26.725Z,15.20
2019-05-12T17:53:57.417Z,15.00
2019-05-12T17:56:33.937Z,15.00
2019-05-12T17:58:59.916Z,14.90
2019-05-12T18:01:34.942Z,14.90
2019-05-12T18:04:04.363Z,14.90
2019-05-12T18:06:35.074Z,14.80
2019-05-12T18:09:09.189Z,14.80
2019-05-12T18:11:39.830Z,14.70
2019-05-12T18:14:10.448Z,14.70
2019-05-12T18:16:43.388Z,14.70
2019-05-12T18:19:17.719Z,14.60
2019-05-12T18:21:45.177Z,14.50
2019-05-12T18:24:15.702Z,14.40
2019-05-12T18:26:54.526Z,14.40
2019-05-12T18:29:18.245Z,14.40
2019-05-12T18:31:48.900Z,14.30
2019-05-12T18:34:19.984Z,14.30
2019-05-12T18:36:58.126Z,14.20
2019-05-12T18:39:24.311Z,14.10
2019-05-12T18:41:55.090Z,14.10
2019-05-12T18:44:31.317Z,14.00
2019-05-12T18:46:57.581Z,14.00
2019-05-12T18:49:28.010Z,14.00
2019-05-12T18:54:28.051Z,13.90
2019-05-12T18:57:02.335Z,13.80
2019-05-12T18:59:30.536Z,13.70
2019-05-12T19:02:03.470Z,13.70
2019-05-12T19:04:34.017Z,13.60
2019-05-12T19:07:05.193Z,13.60
2019-05-12T19:09:35.621Z,13.50
2019-05-12T19:12:15.693Z,13.50
2019-05-12T19:14:40.385Z,13.40
2019-05-12T19:17:11.126Z,13.30
2019-05-12T19:19:45.998Z,13.20
2019-05-12T19:22:14.208Z,13.10
2019-05-12T19:24:44.668Z,13.10
2019-05-12T19:27:18.940Z,13.00
2019-05-12T19:29:49.243Z,13.00
2019-05-12T19:32:19.806Z,12.90
2019-05-12T19:34:50.299Z,12.80
2019-05-12T19:37:27.387Z,12.70
2019-05-12T19:39:53.821Z,12.60
2019-05-12T19:42:25.180Z,12.60
2019-05-12T19:44:59.698Z,12.50
2019-05-12T19:47:33.160Z,12.50
2019-05-12T19:50:08.770Z,12.40
2019-05-12T19:52:32.950Z,12.30
2019-05-12T19:55:03.792Z,12.20
2019-05-12T19:57:34.317Z,12.10
2019-05-12T20:00:05.199Z,12.00
2019-05-12T20:02:35.684Z,12.00
2019-05-12T20:05:07.034Z,11.90
2019-05-12T20:07:37.503Z,11.80
2019-05-12T20:10:08.099Z,11.70
2019-05-12T20:12:38.537Z,11.70
2019-05-12T20:15:09.456Z,11.60
2019-05-12T20:17:39.949Z,11.60
2019-05-12T20:20:10.915Z,11.50
2019-05-12T20:22:43.896Z,11.40
2019-05-12T20:25:14.534Z,11.40
2019-05-12T20:27:45.470Z,11.30
2019-05-12T20:30:20.823Z,11.30
2019-05-12T20:32:48.511Z,11.30
2019-05-12T20:35:19.224Z,11.20
2019-05-12T20:37:53.019Z,11.10
2019-05-12T20:40:23.887Z,11.00
2019-05-12T20:43:07.779Z,10.90
2019-05-12T20:45:26.151Z,10.90
2019-05-12T20:47:56.579Z,10.90
2019-05-12T20:50:32.952Z,10.80
2019-05-12T20:53:00.093Z,10.80
2019-05-12T20:55:36.616Z,10.80
2019-05-12T20:58:04.495Z,10.80
2019-05-12T21:00:38.886Z,10.90
2019-05-12T21:03:06.822Z,10.80
2019-05-12T21:05:37.255Z,10.80
2019-05-12T21:08:12.112Z,10.70
2019-05-12T21:10:39.786Z,10.60
2019-05-12T21:13:10.270Z,10.70
2019-05-12T21:15:42.936Z,10.70
2019-05-12T21:18:14.624Z,10.60
2019-05-12T21:20:46.485Z,10.60
2019-05-12T21:23:17.406Z,10.50
2019-05-12T21:25:52.468Z,10.40
2019-05-12T21:28:19.895Z,10.40
2019-05-12T21:30:50.326Z,10.30
2019-05-12T21:33:20.751Z,10.30
2019-05-12T21:35:54.510Z,10.30
2019-05-12T21:38:29.246Z,10.30
2019-05-12T21:40:56.501Z,10.30
2019-05-12T21:43:26.963Z,10.20
2019-05-12T21:56:04.050Z,10.20
2019-05-12T21:58:31.166Z,9.90
2019-05-12T22:01:06.905Z,9.90
2019-05-12T22:03:35.705Z,9.90
2019-05-12T22:06:15.537Z,9.80
2019-05-12T22:08:38.494Z,9.80
2019-05-12T22:11:11.391Z,9.90
2019-05-12T22:13:46.850Z,9.90
2019-05-12T22:16:14.173Z,9.90
2019-05-12T22:18:47.706Z,9.90
2019-05-12T22:21:17.811Z,9.90
2019-05-12T22:23:51.130Z,9.90
2019-05-12T22:26:20.287Z,9.90
2019-05-12T22:28:51.141Z,9.80
2019-05-12T22:31:24.133Z,9.80
2019-05-12T22:33:56.381Z,9.70
2019-05-12T22:36:29.990Z,9.70
2019-05-12T22:39:00.834Z,9.60
2019-05-12T22:41:35.253Z,9.60
2019-05-12T22:44:02.503Z,9.50
2019-05-12T22:46:35.752Z,9.50
2019-05-12T22:49:10.125Z,9.50
2019-05-12T22:51:38.392Z,9.50
2019-05-12T22:54:10.554Z,9.50
2019-05-12T22:56:40.886Z,9.60
2019-05-12T22:59:13.643Z,9.50
2019-05-12T23:01:46.757Z,9.50
2019-05-12T23:04:16.468Z,9.50
2019-05-12T23:06:46.963Z,9.50
2019-05-12T23:09:19.535Z,9.60
2019-05-12T23:11:49.489Z,9.50
2019-05-12T23:14:22.383Z,9.60
2019-05-12T23:16:54.375Z,9.60
2019-05-12T23:19:24.403Z,9.50
2019-05-12T23:21:58.727Z,9.50
2019-05-12T23:24:30.285Z,9.40
2019-05-12T23:26:59.017Z,9.40
2019-05-12T23:29:30.961Z,9.30
2019-05-12T23:32:07.385Z,9.30
2019-05-12T23:34:34.006Z,9.20
2019-05-12T23:37:04.401Z,9.30
2019-05-12T23:39:38.001Z,9.20
2019-05-12T23:42:06.898Z,9.20
2019-05-12T23:44:37.331Z,9.20
2019-05-12T23:47:07.868Z,9.10
2019-05-12T23:49:38.385Z,9.10
2019-05-12T23:52:08.813Z,9.10
2019-05-12T23:54:39.230Z,9.00
2019-05-12T23:57:12.838Z,9.00
2019-05-12T23:59:41.822Z,8.90
